Aérodrome :
LOGIN :

S'inscrire | Disclaimer

   EN    FR    IT 

 










Légende :    VFR   VFR Marginal   IFR   IFR Intensif   IFR Très Intensif
Visi : 
Plafond : 
>= 8 km
>= 3000ft
5 à 8 km
1000 à 3000 ft
1500m à 5 km
500 à 1000 ft
800 à 1500m
200 à 500 ft
< 800m
< 200 ft
Symboles :   Orages  Brouillard  Fortes neiges  Fortes précipitations  Vent > 20 kt
SIGMETs :   Divers  Orages  Givrage  Turbulence  Onde Orograph.  Cendres Volcan.







- Altitude de l'aérodrome : 587 ft
- Code IATA : XCR
- Voir les cartes d'approche


LFOK - Chalons Vatry

DERNIER METAR :
  • 181930Z AUTO 17014KT CAVOK 05/02 Q1012 NOSIG

METARs EXPIRÉS :
  • 181900Z AUTO 17014KT CAVOK 04/02 Q1012 NOSIG
  • 181830Z AUTO 16017KT CAVOK 04/01 Q1013 NOSIG
  • 181800Z AUTO 16018KT CAVOK 05/02 Q1013 NOSIG
  • 181730Z AUTO 16016KT CAVOK 05/02 Q1013 NOSIG
  • 181700Z AUTO 15019KT CAVOK 05/02 Q1013 NOSIG
  • 181630Z AUTO 15018KT CAVOK 05/02 Q1014 NOSIG

TAF TAF LFOK
Valide du 18 à 18h jusqu'au 19 à 18h UTC


181700Z 1818/1918 14015KT CAVOK
BECMG 1823/1901 4000 RA OVC013
TEMPO 1901/1903 2000 DZRA OVC003
BECMG 1903/1905 9999 NSW
BECMG 1906/1910 BKN017
PROB40
TEMPO 1914/1918 4000 SHRA BKN013CB
Pas de NOTAMs connus pour ce terrain.



MET'MAP, la Météo Aéronautique d'un coup d'oeil ! - Copyright ORBIFLY Décembre 2007 - Disclaimer

ORBIFLY MET'MAP TEAM :

Programmation & Développement : Alexandra Zaïnal
Conception & Développement : Baudouin d'Aumeries
Co-Programmation & Développement : Marc-Olivier Méhu
Soutien technique & logistique : Manuel Goepfert

Contact : metmap@orbifly.com




SOURCES & CREDITS :

   NOAA